Afton Lake, New York
Current Conditions -  °F | °C
As of 9:53 AM on Friday 24 Oct 2014 (Local Time) from KBGM Reporting Station
Scattered Clouds Scattered Clouds  
Wind Chill:   Ceiling: Unl
Heat Index:   Visibility: 10mi
Dew Point:   Wind: 16mph
Humidity: 77%   Direction: 330°NNW
Pressure: 29.92"   Gusts: 25mph
Location:  42.2584°N, 75.57°W
Report Text: KBGM 241353Z 33014G22KT 10SM FEW015 SCT032 09/06 A2992 RMK AO2 SLP135 T00940056
Loading
Personal Weather Stations






























Interactive Weather Map
Tropical Storm Tracking
New forecast layout! Learn more

10-Day Weather Forecast

Advertisements
Track Severe Weather on mobile